This is the latest recevied weather packets stored in our database for station/object EA1HTW-13. If no packets are shown the sender has not sent any weather packets the latest 10 day(s).
| Time | Temp. | Humidity | Pressure | Rain* | Wind** | Luminosity | Snow |
|---|---|---|---|---|---|---|---|
| 1778262254 | 18.33° C | 53% | 1000.9 hPa | 0 mm | - | - | - |
| 1778261715 | 18.33° C | 53% | 1001 hPa | 0 mm | - | - | - |
| 1778261174 | 18.89° C | 52% | 1001 hPa | 0 mm | - | - | - |
| 1778260634 | 19.44° C | 51% | 1001 hPa | 0 mm | - | - | - |
| 1778260095 | 19.44° C | 51% | 1001.2 hPa | 0 mm | - | - | - |
| 1778259554 | 19.44° C | 50% | 1001 hPa | 0 mm | - | - | - |
| 1778259014 | 19.44° C | 47% | 1001.1 hPa | 0 mm | - | - | - |
| 1778258474 | 20.56° C | 45% | 1001.1 hPa | 0 mm | - | - | - |
| 1778257935 | 22.22° C | 42% | 1000.7 hPa | 0 mm | - | - | - |
| 1778257395 | 22.78° C | 39% | 1001 hPa | 0 mm | - | - | - |
| 1778256855 | 22.78° C | 39% | 1001 hPa | 0 mm | - | - | - |
| 1778256314 | 22.22° C | 46% | 1001.1 hPa | 0 mm | - | - | - |
| 1778255774 | 19.44° C | 51% | 1001.3 hPa | 0 mm | - | - | - |
| 1778255235 | 18.33° C | 52% | 1001.5 hPa | 0 mm | - | - | - |
| 1778254694 | 18.33° C | 52% | 1001.5 hPa | 0 mm | - | - | - |
| 1778254154 | 18.33° C | 51% | 1001.5 hPa | 0 mm | - | - | - |
| 1778253615 | 18.33° C | 50% | 1001.6 hPa | 0 mm | - | - | - |
| 1778253075 | 18.33° C | 50% | 1001.7 hPa | 0 mm | - | - | - |
| 1778252535 | 18.33° C | 50% | 1001.9 hPa | 0 mm | - | - | - |
| 1778251995 | 18.89° C | 47% | 1001.9 hPa | 0 mm | - | - | - |
| 1778251455 | 19.44° C | 48% | 1001.9 hPa | 0 mm | - | - | - |
| 1778250914 | 18.89° C | 50% | 1002.1 hPa | 0 mm | - | - | - |
| 1778250374 | 18.33° C | 51% | 1002.2 hPa | 0 mm | - | - | - |
| 1778249834 | 17.78° C | 52% | 1002.3 hPa | 0 mm | - | - | - |
| 1778249295 | 17.22° C | 58% | 1002.4 hPa | 0 mm | - | - | - |
* Rain latest hour (hover to see other rain measurements)
** Current wind speed in m/s (hover to see current wind gust speed)